createdAt,value
2023-02-18T00:01:34.901Z,13.32
2023-02-18T00:04:01.912Z,13.31
2023-02-18T00:06:34.081Z,13.31
2023-02-18T00:09:02.608Z,13.34
2023-02-18T00:11:32.315Z,13.32
2023-02-18T00:14:02.449Z,13.32
2023-02-18T00:16:31.058Z,13.32
2023-02-18T00:19:03.571Z,13.32
2023-02-18T00:21:32.725Z,13.32
2023-02-18T00:23:59.904Z,13.32
2023-02-18T00:26:27.654Z,13.36
2023-02-18T00:28:54.942Z,13.35
2023-02-18T00:31:25.740Z,13.33
2023-02-18T00:33:53.324Z,13.31
2023-02-18T00:36:23.331Z,13.31
2023-02-18T00:38:54.946Z,13.32
2023-02-18T00:41:24.740Z,13.30
2023-02-18T00:43:51.915Z,13.32
2023-02-18T00:46:20.388Z,13.32
2023-02-18T00:48:47.957Z,13.29
2023-02-18T00:51:14.967Z,13.32
2023-02-18T00:53:43.619Z,13.30
2023-02-18T00:56:10.926Z,13.33
2023-02-18T00:58:38.540Z,13.34
2023-02-18T01:01:07.938Z,13.33
2023-02-18T01:03:35.111Z,13.36
2023-02-18T01:06:02.568Z,13.37
2023-02-18T01:08:30.237Z,13.37
2023-02-18T01:11:13.802Z,13.38
2023-02-18T01:13:41.700Z,13.39
2023-02-18T01:16:09.719Z,13.36
2023-02-18T01:18:37.495Z,13.37
2023-02-18T01:21:05.663Z,13.39
2023-02-18T01:23:32.511Z,13.33
2023-02-18T01:25:59.542Z,13.34
2023-02-18T01:28:27.691Z,13.35
2023-02-18T01:30:55.026Z,13.32
2023-02-18T01:33:22.662Z,13.29
2023-02-18T01:35:52.112Z,13.26
2023-02-18T01:38:19.002Z,13.26
2023-02-18T01:40:51.754Z,13.27
2023-02-18T01:43:20.594Z,13.24
2023-02-18T01:46:00.700Z,13.25
2023-02-18T01:48:35.342Z,13.25
2023-02-18T01:51:11.345Z,13.21
2023-02-18T01:53:49.133Z,13.16
2023-02-18T01:56:26.756Z,13.18
2023-02-18T01:59:00.278Z,13.19
2023-02-18T02:01:29.153Z,13.16
2023-02-18T02:03:56.009Z,13.16
2023-02-18T02:06:25.326Z,13.18
2023-02-18T02:08:58.848Z,13.19
2023-02-18T02:12:06.180Z,13.21
2023-02-18T02:14:56.876Z,13.23
2023-02-18T02:17:39.814Z,13.23
2023-02-18T02:20:57.957Z,13.20
2023-02-18T02:24:08.998Z,13.21
2023-02-18T02:27:15.017Z,13.18
2023-02-18T02:30:35.325Z,13.18
2023-02-18T02:33:37.776Z,13.16
2023-02-18T02:36:14.428Z,13.13
2023-02-18T02:38:56.289Z,13.13
2023-02-18T02:41:42.362Z,13.14
2023-02-18T02:44:21.213Z,13.16
2023-02-18T02:46:55.238Z,13.14
2023-02-18T02:49:38.060Z,13.10
2023-02-18T02:52:15.121Z,13.09
2023-02-18T02:54:42.355Z,13.11
2023-02-18T02:57:45.340Z,13.12
2023-02-18T03:00:21.785Z,13.07
2023-02-18T03:03:29.803Z,13.04
2023-02-18T03:06:23.527Z,13.06
2023-02-18T03:09:06.805Z,13.03
2023-02-18T03:11:47.154Z,13.04
2023-02-18T03:14:28.584Z,13.02
2023-02-18T03:17:04.882Z,13.00
2023-02-18T03:19:38.434Z,12.97
2023-02-18T03:22:13.424Z,12.96
2023-02-18T03:24:46.539Z,12.98
2023-02-18T03:27:21.627Z,12.97
2023-02-18T03:29:57.583Z,12.93
2023-02-18T03:32:35.538Z,12.93
2023-02-18T03:35:09.105Z,12.93
2023-02-18T03:37:43.741Z,12.93
2023-02-18T03:40:13.764Z,12.90
2023-02-18T03:42:40.862Z,12.87
2023-02-18T03:45:08.289Z,12.82
2023-02-18T03:47:35.667Z,12.83
2023-02-18T03:50:02.587Z,12.78
2023-02-18T03:52:29.527Z,12.79
2023-02-18T03:54:56.360Z,12.78
2023-02-18T03:57:24.547Z,12.73
2023-02-18T03:59:51.324Z,12.74
2023-02-18T04:02:18.393Z,12.66
2023-02-18T04:04:45.276Z,12.63
2023-02-18T04:07:12.505Z,12.59
2023-02-18T04:09:59.456Z,12.57
2023-02-18T04:12:27.701Z,12.52
2023-02-18T04:14:55.019Z,12.49
2023-02-18T04:17:21.910Z,12.50
2023-02-18T07:00:57.822Z,12.98
2023-02-18T07:03:26.243Z,13.04
2023-02-18T07:05:53.092Z,13.04
2023-02-18T07:08:19.963Z,13.03
2023-02-18T07:10:46.946Z,13.09
2023-02-18T07:13:14.212Z,13.14
2023-02-18T07:15:41.347Z,13.20
2023-02-18T07:18:08.201Z,13.20
2023-02-18T07:20:36.501Z,13.26
2023-02-18T07:23:03.330Z,13.29
2023-02-18T07:25:30.326Z,13.30
2023-02-18T07:27:57.104Z,13.27
2023-02-18T07:30:24.366Z,13.29
2023-02-18T07:32:51.217Z,13.27
2023-02-18T07:35:18.578Z,13.30
2023-02-18T07:37:48.348Z,13.32
2023-02-18T07:40:19.634Z,13.37
2023-02-18T07:42:46.712Z,13.42
2023-02-18T07:45:14.715Z,13.46
2023-02-18T07:47:41.860Z,13.46
2023-02-18T07:50:10.455Z,13.50
2023-02-18T07:52:37.371Z,13.55
2023-02-18T07:55:06.524Z,13.54
2023-02-18T07:57:33.363Z,13.55
2023-02-18T08:00:00.302Z,13.56
2023-02-18T08:02:27.455Z,13.50
2023-02-18T08:04:54.953Z,13.54
2023-02-18T08:07:29.116Z,13.61
2023-02-18T08:09:55.962Z,13.63
2023-02-18T08:12:24.150Z,13.63
2023-02-18T08:19:24.819Z,13.67
2023-02-18T08:21:51.763Z,13.73
2023-02-18T08:24:18.807Z,13.79
2023-02-18T08:26:59.399Z,13.84
2023-02-18T08:29:29.730Z,13.90
2023-02-18T08:31:57.020Z,13.93
2023-02-18T08:34:49.843Z,13.94
2023-02-18T08:37:16.878Z,13.99
2023-02-18T08:39:43.944Z,14.00
2023-02-18T08:42:13.073Z,14.07
2023-02-18T08:44:52.099Z,14.11
2023-02-18T08:48:18.330Z,14.07
2023-02-18T08:53:37.581Z,14.13
2023-02-18T08:56:07.877Z,14.19
2023-02-18T08:58:35.243Z,14.18
2023-02-18T09:01:05.625Z,14.13
2023-02-18T09:03:33.184Z,14.09
2023-02-18T09:06:01.645Z,14.14
2023-02-18T09:08:29.137Z,14.21
2023-02-18T09:10:57.543Z,14.21
2023-02-18T09:13:25.587Z,14.21
2023-02-18T09:16:01.195Z,14.24
2023-02-18T09:18:29.905Z,14.22
2023-02-18T09:21:09.092Z,14.25
2023-02-18T09:23:36.715Z,14.37
2023-02-18T09:26:06.446Z,14.43
2023-02-18T09:28:33.757Z,14.44
2023-02-18T09:31:05.775Z,14.44
2023-02-18T09:33:36.974Z,14.49
2023-02-18T09:36:05.053Z,14.55
2023-02-18T09:38:34.624Z,14.48
2023-02-18T09:41:07.541Z,14.52
2023-02-18T09:43:41.215Z,14.55
2023-02-18T09:46:23.718Z,14.46
2023-02-18T09:48:53.847Z,14.42
2023-02-18T09:51:20.807Z,14.52
2023-02-18T09:53:48.114Z,14.53
2023-02-18T09:56:22.610Z,14.50
2023-02-18T09:58:50.883Z,14.54
2023-02-18T10:01:28.161Z,14.51
2023-02-18T10:04:01.317Z,14.55
2023-02-18T10:06:32.975Z,14.58
2023-02-18T10:09:04.637Z,14.59
2023-02-18T10:11:39.922Z,14.56
2023-02-18T10:14:13.745Z,14.53
2023-02-18T10:16:43.650Z,14.57
2023-02-18T10:19:24.189Z,14.61
2023-02-18T10:21:53.264Z,14.49
2023-02-18T10:24:30.522Z,14.48
2023-02-18T10:26:59.563Z,14.50
2023-02-18T10:29:28.362Z,14.56
2023-02-18T10:32:16.549Z,14.41
2023-02-18T10:35:00.318Z,14.33
2023-02-18T10:37:55.926Z,14.33
2023-02-18T10:45:45.528Z,14.42
2023-02-18T10:49:04.818Z,14.36
2023-02-18T10:51:37.508Z,14.41
2023-02-18T10:54:07.609Z,14.37
2023-02-18T10:56:40.502Z,14.40
2023-02-18T10:59:13.501Z,14.46
2023-02-18T11:01:43.356Z,14.42
2023-02-18T11:04:18.250Z,14.35
2023-02-18T11:06:50.963Z,14.43
2023-02-18T11:09:34.941Z,14.30
2023-02-18T11:12:08.754Z,14.24
2023-02-18T11:14:41.256Z,14.20
2023-02-18T11:17:17.039Z,14.22
2023-02-18T11:19:51.246Z,14.15
2023-02-18T11:22:24.633Z,14.09
2023-02-18T11:24:56.269Z,13.98
2023-02-18T11:27:30.897Z,13.96
2023-02-18T11:30:04.423Z,13.94
2023-02-18T11:32:36.745Z,13.92
2023-02-18T11:35:05.300Z,13.88
2023-02-18T11:37:37.804Z,13.90
2023-02-18T11:40:06.840Z,14.01
2023-02-18T11:42:34.407Z,14.08
2023-02-18T11:45:02.443Z,14.16
2023-02-18T11:47:35.356Z,14.09
2023-02-18T11:50:17.619Z,14.11
2023-02-18T11:52:48.876Z,14.17
2023-02-18T11:55:20.625Z,14.15
2023-02-18T11:57:55.877Z,14.16
2023-02-18T12:00:38.754Z,14.17
2023-02-18T12:03:22.581Z,14.16
2023-02-18T12:05:50.430Z,14.17
2023-02-18T12:08:27.371Z,14.17
2023-02-18T12:11:01.105Z,14.21
2023-02-18T12:13:36.845Z,14.25
2023-02-18T12:16:20.469Z,14.22
2023-02-18T12:19:26.260Z,14.13
2023-02-18T12:22:05.581Z,14.18
2023-02-18T12:24:56.279Z,14.11
2023-02-18T12:27:35.811Z,14.15
2023-02-18T12:30:34.204Z,14.15
2023-02-18T12:33:13.013Z,14.26
2023-02-18T12:36:24.986Z,14.35
2023-02-18T12:39:09.001Z,14.29
2023-02-18T12:46:22.930Z,14.35
2023-02-18T12:49:09.682Z,14.49
2023-02-18T12:51:52.933Z,14.50
2023-02-18T12:55:03.781Z,14.49
2023-02-18T12:57:45.634Z,14.42
2023-02-18T13:00:43.637Z,14.44
2023-02-18T13:04:06.522Z,14.50
2023-02-18T13:07:10.876Z,14.44
2023-02-18T13:10:48.212Z,14.44
2023-02-18T13:13:22.184Z,14.50
2023-02-18T13:15:55.354Z,14.52
2023-02-18T13:18:30.097Z,14.54
2023-02-18T13:21:05.567Z,14.43
2023-02-18T13:23:39.001Z,14.42
2023-02-18T13:26:12.635Z,14.45
2023-02-18T13:28:52.198Z,14.50
2023-02-18T13:31:36.187Z,14.52
2023-02-18T13:34:18.001Z,14.67
2023-02-18T13:37:03.197Z,14.60
2023-02-18T13:39:32.130Z,14.55
2023-02-18T13:42:35.721Z,14.58
2023-02-18T13:45:25.553Z,14.59
2023-02-18T13:47:54.614Z,14.64
2023-02-18T13:50:41.759Z,14.56
2023-02-18T13:53:28.616Z,14.55
2023-02-18T13:56:04.808Z,14.54
2023-02-18T13:58:41.645Z,14.55
2023-02-18T14:01:36.288Z,14.52
2023-02-18T14:04:34.503Z,14.60
2023-02-18T14:07:51.305Z,14.71
2023-02-18T14:10:33.145Z,14.71
2023-02-18T14:13:47.013Z,14.77
2023-02-18T14:16:20.160Z,14.85
2023-02-18T14:19:29.159Z,14.75
2023-02-18T14:22:27.160Z,14.80
2023-02-18T14:25:03.021Z,14.78
2023-02-18T14:27:29.944Z,14.66
2023-02-18T14:30:05.661Z,14.67
2023-02-18T14:32:34.922Z,14.65
2023-02-18T14:35:25.386Z,14.63
2023-02-18T14:38:42.573Z,14.73
2023-02-18T14:41:43.780Z,14.76
2023-02-18T14:44:43.047Z,14.76
2023-02-18T14:47:28.506Z,14.67
2023-02-18T14:50:01.028Z,14.63
2023-02-18T14:53:17.608Z,14.66
2023-02-18T14:55:48.800Z,14.65
2023-02-18T14:58:30.550Z,14.60
2023-02-18T15:00:57.776Z,14.66
2023-02-18T15:03:28.397Z,14.62
2023-02-18T15:05:56.956Z,14.61
2023-02-18T15:08:26.051Z,14.65
2023-02-18T15:11:01.525Z,14.64
2023-02-18T15:13:33.376Z,14.64
2023-02-18T15:16:09.000Z,14.63
2023-02-18T15:18:44.750Z,14.60
2023-02-18T15:21:24.530Z,14.58
2023-02-18T15:24:07.150Z,14.52
2023-02-18T15:26:48.683Z,14.44
2023-02-18T15:29:37.335Z,14.45
2023-02-18T15:32:16.500Z,14.41
2023-02-18T15:35:20.005Z,14.37
2023-02-18T15:37:58.456Z,14.29
2023-02-18T15:40:31.518Z,14.29
2023-02-18T15:43:22.300Z,14.32
2023-02-18T15:50:03.180Z,14.25
2023-02-18T15:52:33.634Z,14.18
2023-02-18T15:55:07.847Z,14.15
2023-02-18T15:57:37.559Z,14.17
2023-02-18T16:00:16.667Z,14.17
2023-02-18T16:02:55.770Z,14.13
2023-02-18T16:05:27.412Z,14.07
2023-02-18T16:08:01.766Z,14.03
2023-02-18T16:10:55.950Z,14.00
2023-02-18T16:13:26.436Z,13.95
2023-02-18T16:15:54.066Z,13.93
2023-02-18T16:18:37.901Z,13.93
2023-02-18T16:21:24.283Z,13.90
2023-02-18T16:23:55.076Z,13.88
2023-02-18T16:26:31.607Z,13.88
2023-02-18T16:29:13.851Z,13.88
2023-02-18T16:31:41.859Z,13.79
2023-02-18T16:34:09.072Z,13.77
2023-02-18T16:36:35.947Z,13.72
2023-02-18T16:39:03.204Z,13.70
2023-02-18T16:41:31.815Z,13.65
2023-02-18T16:43:58.866Z,13.67
2023-02-18T16:46:25.934Z,13.56
2023-02-18T16:48:55.363Z,13.56
2023-02-18T16:51:29.164Z,13.53
2023-02-18T16:53:56.818Z,13.49
2023-02-18T16:56:27.036Z,13.47
2023-02-18T16:58:55.392Z,13.49
2023-02-18T17:01:27.213Z,13.46
2023-02-18T17:03:55.125Z,13.41
2023-02-18T17:06:22.260Z,13.42
2023-02-18T17:08:51.744Z,13.38
2023-02-18T17:11:22.740Z,13.33
2023-02-18T17:13:50.645Z,13.35
2023-02-18T17:16:20.494Z,13.29
2023-02-18T17:18:47.864Z,13.21
2023-02-18T17:21:16.589Z,13.16
2023-02-18T17:23:44.842Z,13.13
2023-02-18T17:26:17.575Z,13.01
2023-02-18T17:28:44.551Z,12.97
2023-02-18T17:31:17.148Z,12.93
2023-02-18T17:33:46.840Z,12.87
2023-02-18T17:36:13.919Z,12.77
2023-02-18T17:38:41.110Z,12.73
2023-02-18T17:41:08.252Z,12.76
2023-02-18T17:43:35.167Z,12.74
2023-02-18T17:46:02.648Z,12.73
2023-02-18T17:48:30.313Z,12.74
2023-02-18T17:50:58.587Z,12.67
2023-02-18T17:53:25.438Z,12.60
2023-02-18T17:55:53.822Z,12.56
2023-02-18T17:58:20.776Z,12.54
2023-02-18T18:00:51.411Z,12.55
2023-02-18T18:03:19.102Z,12.53
2023-02-18T18:05:49.236Z,12.53
2023-02-18T18:08:18.216Z,12.56
2023-02-18T18:10:51.046Z,12.57
2023-02-18T18:13:23.286Z,12.59
2023-02-18T18:15:51.811Z,12.57
2023-02-18T18:18:20.057Z,12.48
2023-02-18T18:20:53.006Z,12.48
2023-02-18T18:23:22.518Z,12.46
2023-02-18T18:25:53.722Z,12.48
2023-02-18T18:28:20.687Z,12.48
2023-02-18T18:30:51.521Z,12.48
2023-02-18T18:33:21.630Z,12.40
2023-02-18T18:35:52.148Z,12.31
2023-02-18T18:38:24.620Z,12.20
2023-02-18T18:40:55.211Z,12.13
2023-02-18T18:43:25.377Z,12.12
2023-02-18T18:45:53.741Z,12.16
2023-02-18T18:48:27.771Z,12.11
2023-02-18T18:50:58.819Z,12.12
2023-02-18T18:53:30.525Z,11.99
2023-02-18T18:56:01.116Z,11.91
2023-02-18T18:58:28.265Z,11.87
2023-02-18T19:00:59.200Z,11.82
2023-02-18T19:03:28.436Z,11.79
2023-02-18T19:05:56.517Z,11.83
2023-02-18T19:08:24.418Z,11.90
2023-02-18T19:10:55.836Z,11.85
2023-02-18T19:13:26.474Z,11.89
2023-02-18T19:16:02.984Z,11.82
2023-02-18T19:18:30.579Z,11.88
2023-02-18T19:20:57.374Z,11.84
2023-02-18T19:23:24.327Z,11.84
2023-02-18T19:25:52.828Z,11.81
2023-02-18T19:28:20.813Z,11.84
2023-02-18T19:30:50.347Z,11.87
2023-02-18T19:33:18.008Z,11.87
2023-02-18T19:35:45.712Z,11.86
2023-02-18T19:38:15.490Z,11.77
2023-02-18T19:40:44.596Z,11.75
2023-02-18T19:43:13.657Z,11.68
2023-02-18T19:45:42.994Z,11.63
2023-02-18T19:48:11.620Z,11.70
2023-02-18T19:50:41.075Z,11.75
2023-02-18T19:53:08.440Z,11.80
2023-02-18T19:55:35.425Z,11.82
2023-02-18T19:58:02.282Z,11.78
2023-02-18T20:00:30.602Z,11.81
2023-02-18T20:02:58.150Z,11.84
2023-02-18T20:05:27.186Z,11.84
2023-02-18T20:07:54.068Z,11.85
2023-02-18T20:10:22.286Z,11.73
2023-02-18T20:12:52.943Z,11.63
2023-02-18T20:15:20.382Z,11.61
2023-02-18T20:17:53.641Z,11.62
2023-02-18T20:20:20.853Z,11.66
2023-02-18T20:22:47.781Z,11.66
2023-02-18T20:25:15.034Z,11.63
2023-02-18T20:27:58.264Z,11.59
2023-02-18T20:30:27.169Z,11.40
2023-02-18T20:32:57.013Z,11.46
2023-02-18T20:35:24.606Z,11.48
2023-02-18T20:37:51.768Z,11.54
2023-02-18T20:40:19.302Z,11.50
2023-02-18T20:42:51.297Z,11.45
2023-02-18T20:45:18.334Z,11.49
2023-02-18T20:47:45.254Z,11.50
2023-02-18T20:50:14.681Z,11.53
2023-02-18T20:52:41.564Z,11.53
2023-02-18T20:55:09.072Z,11.53
2023-02-18T20:57:36.376Z,11.43
2023-02-18T21:00:05.413Z,11.34
2023-02-18T21:02:32.357Z,11.32
2023-02-18T21:05:00.936Z,11.28
2023-02-18T21:07:29.319Z,11.04
2023-02-18T21:09:58.085Z,11.04
2023-02-18T21:12:27.602Z,11.06
2023-02-18T21:14:54.513Z,11.05
2023-02-18T21:17:21.381Z,10.97
2023-02-18T21:19:49.000Z,10.88
2023-02-18T21:22:15.899Z,10.85
2023-02-18T21:24:44.522Z,10.84
2023-02-18T21:27:11.366Z,10.86
2023-02-18T21:29:38.324Z,10.78
2023-02-18T21:32:05.475Z,10.79
2023-02-18T21:34:32.411Z,10.83
2023-02-18T21:36:59.247Z,10.72
2023-02-18T21:39:26.183Z,10.64
2023-02-18T21:41:54.585Z,10.62
2023-02-18T21:44:25.023Z,10.56
2023-02-18T21:46:56.889Z,10.52
2023-02-18T21:49:23.800Z,10.54
2023-02-18T21:51:52.184Z,10.48
2023-02-18T21:54:22.813Z,10.40
2023-02-18T21:56:51.320Z,10.42
2023-02-18T21:59:22.077Z,10.29
2023-02-18T22:01:56.148Z,10.26
2023-02-18T22:04:23.776Z,10.19
2023-02-18T22:06:50.758Z,10.07
2023-02-18T22:09:18.002Z,10.13
2023-02-18T22:11:45.257Z,10.18
2023-02-18T22:14:14.756Z,10.17
2023-02-18T22:16:44.185Z,10.18
2023-02-18T22:19:12.170Z,10.25
2023-02-18T22:21:39.109Z,10.21
2023-02-18T22:24:07.410Z,10.12
2023-02-18T22:26:34.621Z,10.08
2023-02-18T22:29:02.092Z,9.94
2023-02-18T22:31:31.518Z,10.06
2023-02-18T22:34:00.945Z,10.14
2023-02-18T22:36:29.317Z,10.14
2023-02-18T22:38:58.278Z,10.20
2023-02-18T22:41:27.472Z,10.18
2023-02-18T22:43:55.935Z,10.22
2023-02-18T22:46:23.455Z,10.23
2023-02-18T22:48:50.481Z,10.29
2023-02-18T22:51:22.740Z,10.23
2023-02-18T22:53:49.517Z,10.15
2023-02-18T22:56:19.407Z,10.05
2023-02-18T22:58:49.624Z,10.04
2023-02-18T23:01:22.424Z,9.86
2023-02-18T23:03:49.905Z,9.75
2023-02-18T23:06:20.562Z,9.81
2023-02-18T23:08:48.698Z,9.87
2023-02-18T23:11:18.987Z,9.83
2023-02-18T23:13:47.383Z,9.96
2023-02-18T23:16:15.138Z,10.18
2023-02-18T23:18:42.092Z,10.16
2023-02-18T23:21:15.513Z,9.97
2023-02-18T23:23:44.865Z,10.03
2023-02-18T23:26:12.560Z,10.16
2023-02-18T23:28:41.198Z,10.11
2023-02-18T23:31:09.068Z,10.07
2023-02-18T23:33:36.873Z,10.14
2023-02-18T23:36:10.337Z,10.31
2023-02-18T23:38:37.541Z,10.27
2023-02-18T23:41:07.330Z,10.36
2023-02-18T23:43:34.679Z,10.53
2023-02-18T23:46:01.630Z,10.43
2023-02-18T23:48:28.700Z,10.48
2023-02-18T23:51:00.310Z,10.42
2023-02-18T23:53:30.185Z,10.44
2023-02-18T23:56:07.344Z,10.48
2023-02-18T23:58:40.086Z,10.53
